Time;durP1;ratioP1;P1;durP2;ratioP2;P2;SDS_P1;SDS_P2;PMS_P1;PMS_P2;Temp;Humidity;BMP_temperature;BMP_pressure;BME280_temperature;BME280_humidity;BME280_pressure;Samples;Min_cycle;Max_cycle;Signal;HPM_P1;HPM_P2
2022/09/18 00:01:11;;;;;;;20.73;4.20;;;9.40;99.90;;;;;;5106862;28;20071;-67
2022/09/18 00:03:38;;;;;;;2.80;1.63;;;9.50;99.90;;;;;;5095108;28;20047;-67
2022/09/18 00:06:09;;;;;;;9.90;3.05;;;9.40;99.90;;;;;;5105283;28;20054;-67
2022/09/18 00:08:37;;;;;;;3.25;1.20;;;9.50;99.90;;;;;;5097036;28;20753;-67
2022/09/18 00:11:07;;;;;;;12.13;2.05;;;9.40;99.90;;;;;;5107450;28;20062;-67
2022/09/18 00:13:37;;;;;;;5.47;1.42;;;9.40;99.90;;;;;;5106488;28;20081;-67
2022/09/18 00:16:05;;;;;;;16.52;3.20;;;9.40;99.90;;;;;;5102550;28;20048;-67
2022/09/18 00:18:30;;;;;;;17.35;3.60;;;9.40;99.90;;;;;;5095029;28;20052;-67
2022/09/18 00:21:10;;;;;;;2.78;1.42;;;9.50;99.90;;;;;;5101066;28;20400;-67
2022/09/18 00:23:36;;;;;;;6.85;1.15;;;9.40;99.90;;;;;;5099876;28;20097;-67
2022/09/18 00:26:04;;;;;;;0.85;0.50;;;9.40;99.90;;;;;;5101939;28;20047;-67
2022/09/18 00:28:30;;;;;;;18.90;3.60;;;9.50;99.90;;;;;;5106817;28;20073;-68
2022/09/18 00:31:09;;;;;;;7.97;1.20;;;9.40;99.90;;;;;;5106211;28;20247;-68
2022/09/18 00:33:35;;;;;;;1.95;0.90;;;9.40;99.90;;;;;;5096515;28;20039;-67
2022/09/18 00:36:06;;;;;;;17.67;3.13;;;9.40;99.90;;;;;;5106190;28;20043;-68
2022/09/18 00:38:32;;;;;;;3.70;1.23;;;9.40;99.90;;;;;;5103170;28;20036;-68
2022/09/18 00:41:00;;;;;;;0.55;0.55;;;9.40;99.90;;;;;;5092585;28;20040;-68
2022/09/18 00:43:28;;;;;;;3.40;1.58;;;9.30;99.90;;;;;;5105155;28;20771;-68
2022/09/18 00:45:59;;;;;;;;;;;9.30;99.90;;;;;;5093869;28;20052;-67
2022/09/18 00:48:32;;;;;;;10.35;2.80;;;9.30;99.90;;;;;;5092891;28;20794;-67
2022/09/18 00:50:59;;;;;;;16.05;3.65;;;9.40;99.90;;;;;;5076697;28;20071;-67
2022/09/18 00:53:26;;;;;;;2.22;1.45;;;9.30;99.90;;;;;;5111661;28;20128;-67
2022/09/18 00:55:52;;;;;;;0.68;0.60;;;9.30;99.90;;;;;;5108271;28;20058;-68
2022/09/18 00:58:17;;;;;;;3.30;0.85;;;9.30;99.90;;;;;;5110853;28;20504;-68
2022/09/18 01:00:43;;;;;;;17.05;3.33;;;9.30;99.90;;;;;;5098039;28;20059;-68
2022/09/18 01:03:09;;;;;;;1.25;1.15;;;9.30;99.90;;;;;;5094929;28;20047;-68
2022/09/18 01:05:59;;;;;;;4.68;1.95;;;9.30;99.90;;;;;;5098240;28;20043;-67
2022/09/18 01:08:43;;;;;;;1.90;1.13;;;9.40;99.90;;;;;;5097683;28;20051;-68
2022/09/18 01:11:35;;;;;;;11.13;3.33;;;9.30;99.90;;;;;;5109131;28;20588;-67
2022/09/18 01:14:11;;;;;;;21.17;4.30;;;9.40;99.90;;;;;;5109262;28;20039;-68
2022/09/18 01:16:54;;;;;;;3.10;1.42;;;9.40;99.90;;;;;;5096860;28;20044;-67
2022/09/18 01:20:08;;;;;;;16.05;3.42;;;9.40;99.90;;;;;;5089409;28;20051;-68
2022/09/18 01:22:55;;;;;;;6.03;1.38;;;9.50;99.90;;;;;;5098198;28;20079;-67
2022/09/18 01:25:46;;;;;;;2.07;1.47;;;9.40;99.90;;;;;;5102552;28;20050;-68
2022/09/18 01:28:23;;;;;;;4.55;1.30;;;9.40;99.90;;;;;;5108954;28;20054;-67
2022/09/18 01:30:54;;;;;;;2.97;1.08;;;9.40;99.90;;;;;;5106034;28;20047;-67
2022/09/18 01:33:30;;;;;;;24.70;5.47;;;9.50;99.90;;;;;;5102172;28;20050;-67
2022/09/18 01:36:01;;;;;;;2.88;1.15;;;9.50;99.90;;;;;;5099215;28;20052;-67
2022/09/18 01:38:38;;;;;;;18.20;4.57;;;9.60;99.90;;;;;;5108852;28;20077;-67
2022/09/18 01:41:19;;;;;;;15.30;3.00;;;9.50;99.90;;;;;;5110412;28;20052;-67
2022/09/18 01:43:51;;;;;;;15.55;2.13;;;9.60;99.90;;;;;;5110879;28;20292;-67
2022/09/18 01:46:19;;;;;;;20.92;4.15;;;9.60;99.90;;;;;;5110253;27;20079;-67
2022/09/18 01:48:54;;;;;;;2.72;2.22;;;9.60;99.90;;;;;;5079467;28;20043;-67
2022/09/18 01:51:28;;;;;;;3.53;1.25;;;9.60;99.90;;;;;;5098162;28;20076;-67
2022/09/18 01:53:58;;;;;;;18.92;4.28;;;9.50;99.90;;;;;;5102083;28;20043;-67
2022/09/18 01:56:35;;;;;;;5.25;2.22;;;9.50;99.90;;;;;;5103691;28;20040;-68
2022/09/18 01:59:05;;;;;;;28.30;4.82;;;9.60;99.90;;;;;;5098775;28;20044;-67
2022/09/18 02:01:35;;;;;;;2.60;1.52;;;9.60;99.90;;;;;;5107044;28;20047;-67
2022/09/18 02:04:09;;;;;;;3.42;1.40;;;9.60;99.90;;;;;;5098161;27;20132;-67
2022/09/18 02:06:49;;;;;;;20.50;4.35;;;9.50;99.90;;;;;;5095574;28;20047;-67
2022/09/18 02:09:15;;;;;;;17.63;4.78;;;9.50;99.90;;;;;;5110130;28;20054;-67
2022/09/18 02:11:45;;;;;;;2.83;1.35;;;9.50;99.90;;;;;;5110317;28;20048;-67
2022/09/18 02:14:14;;;;;;;5.53;0.80;;;9.50;99.90;;;;;;5108309;28;20126;-67
2022/09/18 02:16:46;;;;;;;13.93;3.83;;;9.50;99.90;;;;;;5105628;28;20043;-67
2022/09/18 02:19:24;;;;;;;1.98;0.88;;;9.60;99.90;;;;;;5098751;27;20059;-67
2022/09/18 02:21:52;;;;;;;12.57;3.65;;;9.50;99.90;;;;;;5109188;27;20131;-67
2022/09/18 02:24:20;;;;;;;1.95;1.55;;;9.50;99.90;;;;;;5094479;28;20040;-68
2022/09/18 02:26:48;;;;;;;10.63;1.27;;;9.60;99.90;;;;;;5089403;28;20055;-67
2022/09/18 02:29:15;;;;;;;1.90;0.80;;;9.60;99.90;;;;;;5091079;28;20094;-67
2022/09/18 02:31:41;;;;;;;14.57;4.13;;;9.60;99.90;;;;;;5104051;28;20086;-67
2022/09/18 02:34:08;;;;;;;1.48;0.98;;;9.50;99.90;;;;;;5101984;28;20071;-67
2022/09/18 02:36:52;;;;;;;14.13;4.25;;;9.60;99.90;;;;;;5097083;28;20094;-67
2022/09/18 02:39:33;;;;;;;11.30;3.63;;;9.60;99.90;;;;;;5093279;28;20054;-67
2022/09/18 02:42:14;;;;;;;4.25;0.90;;;9.60;99.90;;;;;;5095191;28;20036;-67
2022/09/18 02:44:39;;;;;;;20.88;4.50;;;9.60;99.90;;;;;;5109988;28;20046;-67
2022/09/18 02:47:32;;;;;;;19.08;4.38;;;9.50;99.90;;;;;;5097810;28;20059;-67
2022/09/18 02:50:07;;;;;;;20.38;2.03;;;9.60;99.90;;;;;;5107460;28;20043;-67
2022/09/18 02:52:48;;;;;;;1.20;1.13;;;9.50;99.90;;;;;;5103811;28;20039;-67
2022/09/18 02:55:24;;;;;;;13.68;3.72;;;9.50;99.90;;;;;;5093308;28;20045;-67
2022/09/18 02:58:02;;;;;;;3.38;2.95;;;9.50;99.90;;;;;;5110034;28;20483;-67
2022/09/18 03:00:30;;;;;;;4.43;1.75;;;9.60;99.90;;;;;;5109236;28;20399;-67
2022/09/18 03:03:00;;;;;;;5.38;1.02;;;9.50;99.90;;;;;;5098964;28;20111;-67
2022/09/18 03:05:25;;;;;;;16.65;3.85;;;9.50;99.90;;;;;;5103840;28;20114;-67
2022/09/18 03:07:52;;;;;;;4.22;1.05;;;9.50;99.90;;;;;;5109624;28;20150;-67
2022/09/18 03:10:17;;;;;;;17.00;4.20;;;9.50;99.90;;;;;;5091361;28;20050;-66
2022/09/18 03:12:43;;;;;;;17.10;2.97;;;9.60;99.90;;;;;;5097850;28;20040;-67
2022/09/18 03:15:10;;;;;;;10.98;3.63;;;9.60;99.90;;;;;;5106349;28;20067;-67
2022/09/18 03:17:36;;;;;;;14.38;2.47;;;9.60;99.90;;;;;;5104055;28;20051;-67
2022/09/18 03:20:02;;;;;;;10.98;1.30;;;9.60;99.90;;;;;;5103317;28;20097;-67
2022/09/18 03:22:29;;;;;;;18.77;4.32;;;9.60;99.90;;;;;;5108973;28;20048;-67
2022/09/18 03:24:55;;;;;;;23.67;4.38;;;9.70;99.90;;;;;;5108406;28;20617;-67
2022/09/18 03:27:20;;;;;;;14.65;4.20;;;9.70;99.90;;;;;;5101036;28;20043;-67
2022/09/18 03:29:46;;;;;;;1.65;1.13;;;9.70;99.90;;;;;;5107991;28;20039;-68
2022/09/18 03:32:12;;;;;;;16.23;3.80;;;9.70;99.90;;;;;;5107752;28;20096;-67
2022/09/18 03:34:38;;;;;;;8.45;1.27;;;9.70;99.90;;;;;;5106079;28;20648;-68
2022/09/18 03:37:04;;;;;;;25.85;3.85;;;9.80;99.90;;;;;;5108739;28;20142;-67
2022/09/18 03:39:29;;;;;;;13.88;3.97;;;9.80;99.90;;;;;;5108587;28;20130;-68
2022/09/18 03:41:55;;;;;;;4.18;1.20;;;9.80;99.90;;;;;;5108800;28;20488;-67
2022/09/18 03:44:21;;;;;;;3.78;1.25;;;9.90;99.90;;;;;;5107291;28;20040;-67
2022/09/18 03:46:46;;;;;;;6.15;1.55;;;9.80;99.90;;;;;;5108565;28;20073;-68
2022/09/18 03:49:12;;;;;;;2.08;1.00;;;9.90;99.90;;;;;;5104202;28;20039;-68
2022/09/18 03:51:39;;;;;;;11.65;0.93;;;9.80;99.90;;;;;;5106463;28;20090;-67
2022/09/18 03:54:05;;;;;;;6.88;2.47;;;9.90;99.90;;;;;;5088545;28;20044;-68
2022/09/18 03:56:31;;;;;;;19.58;3.03;;;9.90;99.90;;;;;;5087935;28;20039;-67
2022/09/18 03:58:56;;;;;;;3.95;0.75;;;9.90;99.90;;;;;;5105369;28;20046;-67
2022/09/18 04:01:22;;;;;;;12.32;3.35;;;10.00;99.90;;;;;;5097874;28;20048;-67
2022/09/18 04:03:48;;;;;;;21.83;4.50;;;10.00;99.90;;;;;;5094482;28;20504;-67
2022/09/18 04:06:14;;;;;;;16.30;3.50;;;10.00;99.90;;;;;;5108659;28;20062;-67
2022/09/18 04:08:40;;;;;;;10.93;3.67;;;10.10;99.90;;;;;;5107514;27;20403;-68
2022/09/18 04:11:05;;;;;;;9.05;1.70;;;10.10;99.90;;;;;;5106143;28;20104;-68
2022/09/18 04:13:32;;;;;;;9.70;2.15;;;10.10;99.90;;;;;;5101683;28;20435;-67
2022/09/18 04:15:57;;;;;;;1.75;1.33;;;10.00;99.90;;;;;;5106059;28;20131;-67
2022/09/18 04:18:23;;;;;;;0.47;0.47;;;10.00;99.90;;;;;;5096813;28;20139;-67
2022/09/18 04:20:49;;;;;;;15.30;3.22;;;10.00;99.90;;;;;;5099711;28;20051;-67
2022/09/18 04:23:15;;;;;;;19.85;3.80;;;10.00;99.90;;;;;;5107404;28;20457;-68
2022/09/18 04:25:41;;;;;;;22.33;3.53;;;10.00;99.90;;;;;;5087754;28;20051;-67
2022/09/18 04:28:07;;;;;;;7.97;3.22;;;10.10;99.90;;;;;;5100180;28;20040;-67
2022/09/18 04:30:33;;;;;;;12.00;3.08;;;10.10;99.90;;;;;;5107603;28;20080;-67
2022/09/18 04:32:58;;;;;;;0.77;0.77;;;10.10;99.90;;;;;;5105982;28;20044;-67
2022/09/18 04:35:24;;;;;;;19.73;4.00;;;10.00;99.90;;;;;;5104812;28;20043;-67
2022/09/18 04:37:50;;;;;;;8.02;2.72;;;10.10;99.90;;;;;;5107457;28;20115;-66
2022/09/18 04:40:15;;;;;;;16.70;3.67;;;10.10;99.90;;;;;;5106267;28;20055;-67
2022/09/18 04:42:41;;;;;;;20.20;3.35;;;10.10;99.90;;;;;;5105594;28;20067;-67
2022/09/18 04:45:07;;;;;;;13.25;2.67;;;10.20;99.90;;;;;;5104189;28;20400;-67
2022/09/18 04:47:33;;;;;;;15.35;1.95;;;10.10;99.90;;;;;;5100477;28;20040;-67
2022/09/18 04:49:58;;;;;;;24.50;3.80;;;10.20;99.90;;;;;;5106920;28;20039;-67
2022/09/18 04:52:25;;;;;;;19.52;4.40;;;10.10;99.90;;;;;;5099494;28;20837;-67
2022/09/18 04:54:51;;;;;;;16.10;2.60;;;10.10;99.90;;;;;;5101725;28;20116;-67
2022/09/18 04:57:17;;;;;;;4.75;1.40;;;10.10;99.90;;;;;;5096381;28;20064;-67
2022/09/18 04:59:42;;;;;;;14.93;4.22;;;10.10;99.90;;;;;;5107345;28;20140;-67
2022/09/18 05:02:08;;;;;;;14.93;3.40;;;10.10;99.90;;;;;;5104743;28;20493;-67
2022/09/18 05:04:33;;;;;;;3.33;1.48;;;10.10;99.90;;;;;;5097555;28;20519;-67
2022/09/18 05:06:59;;;;;;;0.80;0.80;;;10.10;99.90;;;;;;5105703;28;20572;-68
2022/09/18 05:09:25;;;;;;;1.38;1.17;;;10.10;99.90;;;;;;5107745;28;20046;-68
2022/09/18 05:11:50;;;;;;;19.35;4.15;;;10.10;99.90;;;;;;5092640;28;20043;-67
2022/09/18 05:14:16;;;;;;;8.23;3.10;;;10.10;99.90;;;;;;5106936;28;20047;-67
2022/09/18 05:16:42;;;;;;;19.42;3.45;;;10.10;99.90;;;;;;5098764;28;20381;-67
2022/09/18 05:19:08;;;;;;;8.30;2.97;;;10.20;99.90;;;;;;5096396;28;20069;-67
2022/09/18 05:21:33;;;;;;;11.90;3.38;;;10.20;99.90;;;;;;5094563;28;20055;-67
2022/09/18 05:23:59;;;;;;;5.03;0.73;;;10.20;99.90;;;;;;5087311;28;20032;-67
2022/09/18 05:26:25;;;;;;;11.45;3.90;;;10.20;99.90;;;;;;5087390;28;20521;-67
2022/09/18 05:28:51;;;;;;;6.03;1.63;;;10.20;99.90;;;;;;5108041;28;20040;-67
2022/09/18 05:31:17;;;;;;;10.20;2.83;;;10.10;99.90;;;;;;5105983;28;20051;-67
2022/09/18 05:33:42;;;;;;;15.30;3.33;;;10.10;99.90;;;;;;5100345;28;20043;-67
2022/09/18 05:36:08;;;;;;;6.45;0.88;;;10.10;99.90;;;;;;5106401;28;20115;-67
2022/09/18 05:38:34;;;;;;;12.43;2.95;;;10.20;99.90;;;;;;5109003;28;20114;-67
2022/09/18 05:41:01;;;;;;;15.45;3.60;;;10.20;99.90;;;;;;5111152;28;20598;-67
2022/09/18 05:43:28;;;;;;;7.65;1.42;;;10.20;99.90;;;;;;5111460;28;20039;-67
2022/09/18 05:45:53;;;;;;;6.30;1.30;;;10.20;99.90;;;;;;5107758;28;20032;-67
2022/09/18 05:48:20;;;;;;;2.75;2.50;;;10.20;99.90;;;;;;5104271;28;20070;-67
2022/09/18 05:50:47;;;;;;;12.27;1.88;;;10.20;99.90;;;;;;5094352;27;20397;-67
2022/09/18 05:53:15;;;;;;;13.95;2.95;;;10.20;99.90;;;;;;5090727;28;20051;-67
2022/09/18 05:55:41;;;;;;;1.42;0.77;;;10.30;99.90;;;;;;5083026;28;20048;-67
2022/09/18 05:58:11;;;;;;;1.10;1.00;;;10.30;99.90;;;;;;5109604;28;20043;-68
2022/09/18 06:00:37;;;;;;;8.95;2.50;;;10.40;99.90;;;;;;5110562;28;20048;-67
2022/09/18 06:03:09;;;;;;;16.50;2.10;;;10.30;99.90;;;;;;5101981;28;20040;-68
2022/09/18 06:05:36;;;;;;;0.75;0.63;;;10.30;99.90;;;;;;5104277;28;20028;-67
2022/09/18 06:08:04;;;;;;;0.63;0.63;;;10.30;99.90;;;;;;5105418;28;20418;-67
2022/09/18 06:10:32;;;;;;;13.70;2.25;;;10.30;99.90;;;;;;5108925;27;20043;-68
2022/09/18 06:13:02;;;;;;;12.07;2.22;;;10.50;99.90;;;;;;5095537;28;20047;-68
2022/09/18 06:15:28;;;;;;;10.65;2.75;;;10.40;99.90;;;;;;5094937;28;20048;-68
2022/09/18 06:17:53;;;;;;;0.60;0.60;;;10.40;99.90;;;;;;5106687;28;20039;-68
2022/09/18 06:20:19;;;;;;;11.25;2.55;;;10.40;99.90;;;;;;5101773;28;20075;-68
2022/09/18 06:22:45;;;;;;;3.55;0.63;;;10.40;99.90;;;;;;5089730;28;20051;-68
2022/09/18 06:25:10;;;;;;;3.45;2.00;;;10.40;99.90;;;;;;5094440;28;20535;-68
2022/09/18 06:27:36;;;;;;;2.90;1.00;;;10.40;99.90;;;;;;5109426;28;20058;-67
2022/09/18 06:30:04;;;;;;;7.57;2.75;;;10.40;99.90;;;;;;5097978;28;20504;-68
2022/09/18 06:32:29;;;;;;;1.90;1.43;;;10.40;99.90;;;;;;5076469;28;20109;-67
2022/09/18 06:34:55;;;;;;;10.93;3.25;;;10.40;99.90;;;;;;5101695;28;20044;-67
2022/09/18 06:37:21;;;;;;;1.85;1.75;;;10.40;99.90;;;;;;5106816;27;20051;-67
2022/09/18 06:39:47;;;;;;;7.10;0.93;;;10.40;99.90;;;;;;5090583;28;20496;-67
2022/09/18 06:42:12;;;;;;;6.60;2.22;;;10.40;99.90;;;;;;5090278;28;20040;-67
2022/09/18 06:44:38;;;;;;;1.27;0.98;;;10.50;99.90;;;;;;5095616;28;20184;-67
2022/09/18 06:47:04;;;;;;;8.73;0.93;;;10.50;99.90;;;;;;5103772;28;20048;-68
2022/09/18 06:49:29;;;;;;;1.45;0.70;;;10.50;99.90;;;;;;5083343;28;20043;-67
2022/09/18 06:51:55;;;;;;;0.77;0.77;;;10.50;99.90;;;;;;5094482;27;20100;-67
2022/09/18 06:54:20;;;;;;;6.22;2.17;;;10.60;99.90;;;;;;5088392;28;20489;-67
2022/09/18 06:56:46;;;;;;;3.03;1.27;;;10.50;99.90;;;;;;5091376;28;20523;-67
2022/09/18 06:59:12;;;;;;;9.57;1.88;;;10.60;99.90;;;;;;5092065;28;20048;-67
2022/09/18 07:01:38;;;;;;;14.32;2.40;;;10.60;99.90;;;;;;5097694;28;20048;-67
2022/09/18 07:04:04;;;;;;;0.52;0.52;;;10.70;99.90;;;;;;5094338;28;20075;-67
2022/09/18 07:06:30;;;;;;;6.90;2.67;;;10.70;99.90;;;;;;5109951;28;20128;-68
2022/09/18 07:08:56;;;;;;;14.57;2.85;;;10.70;99.90;;;;;;5102334;28;20122;-67
2022/09/18 07:11:22;;;;;;;9.50;2.53;;;10.70;99.90;;;;;;5088084;28;20043;-67
2022/09/18 07:13:47;;;;;;;4.63;1.92;;;10.80;99.90;;;;;;5093897;27;20036;-68
2022/09/18 07:16:13;;;;;;;2.17;0.82;;;10.90;99.90;;;;;;5095715;28;20758;-68
2022/09/18 07:18:39;;;;;;;5.85;2.38;;;10.80;99.90;;;;;;5106641;28;20051;-69
2022/09/18 07:21:04;;;;;;;2.70;0.70;;;10.80;99.90;;;;;;5104138;28;20071;-67
2022/09/18 07:23:32;;;;;;;15.00;3.10;;;10.80;99.90;;;;;;5096461;28;20036;-67
2022/09/18 07:26:02;;;;;;;1.58;0.65;;;10.80;99.90;;;;;;5095299;28;20040;-67
2022/09/18 07:28:28;;;;;;;3.65;2.40;;;10.90;99.90;;;;;;5096456;28;20058;-67
2022/09/18 07:30:54;;;;;;;2.08;0.60;;;10.90;99.90;;;;;;5100933;28;20038;-67
2022/09/18 07:33:20;;;;;;;5.40;1.00;;;10.80;99.90;;;;;;5093915;28;20127;-67
2022/09/18 07:35:46;;;;;;;6.75;3.25;;;10.90;99.90;;;;;;5097396;28;20036;-67
2022/09/18 07:38:12;;;;;;;2.40;0.90;;;10.90;99.90;;;;;;5107162;28;20063;-67
2022/09/18 07:40:40;;;;;;;0.60;0.60;;;11.00;99.90;;;;;;5100201;28;20412;-68
2022/09/18 07:43:08;;;;;;;21.13;3.33;;;10.90;99.90;;;;;;5108333;28;20044;-67
2022/09/18 07:45:34;;;;;;;5.63;1.70;;;11.00;99.90;;;;;;5103023;28;20046;-67
2022/09/18 07:48:04;;;;;;;5.82;1.73;;;11.00;99.90;;;;;;5106757;28;20036;-67
2022/09/18 07:50:30;;;;;;;1.70;0.73;;;11.00;99.90;;;;;;5098548;28;20069;-67
2022/09/18 07:52:58;;;;;;;9.30;2.78;;;11.10;99.90;;;;;;5102641;28;20043;-67
2022/09/18 07:55:25;;;;;;;0.60;0.60;;;11.20;99.90;;;;;;5102180;28;20047;-67
2022/09/18 07:57:59;;;;;;;0.85;0.85;;;11.00;99.90;;;;;;5089612;28;20051;-67
2022/09/18 08:00:28;;;;;;;0.80;0.80;;;11.10;99.90;;;;;;5103611;28;20617;-67
2022/09/18 08:03:04;;;;;;;7.68;2.63;;;11.10;99.90;;;;;;5100713;28;20036;-67
2022/09/18 08:05:30;;;;;;;10.95;3.40;;;11.00;99.90;;;;;;5103819;28;20047;-67
2022/09/18 08:08:00;;;;;;;9.60;2.92;;;11.10;99.90;;;;;;5098610;28;21535;-67
2022/09/18 08:10:25;;;;;;;10.18;3.33;;;11.10;99.90;;;;;;5103534;28;20046;-68
2022/09/18 08:12:54;;;;;;;9.88;2.40;;;11.20;99.90;;;;;;5107913;28;20051;-67
2022/09/18 08:15:19;;;;;;;;;;;11.20;99.90;;;;;;5106470;28;20435;-68
2022/09/18 08:17:45;;;;;;;7.40;2.88;;;11.40;99.90;;;;;;5086352;28;19927;-68
2022/09/18 08:20:12;;;;;;;4.88;2.03;;;11.10;99.90;;;;;;5100965;28;20054;-68
2022/09/18 08:22:39;;;;;;;7.50;2.95;;;11.20;99.90;;;;;;5089774;28;20042;-68
2022/09/18 08:25:06;;;;;;;9.13;3.72;;;11.10;99.90;;;;;;5098642;28;20040;-68
2022/09/18 08:27:36;;;;;;;8.98;1.13;;;11.20;99.90;;;;;;5098268;28;20044;-67
2022/09/18 08:30:03;;;;;;;1.52;1.02;;;11.10;99.90;;;;;;5095534;28;20094;-67
2022/09/18 08:32:29;;;;;;;16.65;2.92;;;11.10;99.90;;;;;;5098711;28;20090;-68
2022/09/18 08:34:54;;;;;;;1.40;1.20;;;11.10;99.90;;;;;;5107946;28;20493;-67
2022/09/18 08:37:20;;;;;;;10.15;2.58;;;11.10;99.90;;;;;;5089480;28;20039;-67
2022/09/18 08:39:46;;;;;;;10.35;2.33;;;11.10;99.90;;;;;;5107274;28;20040;-67
2022/09/18 08:42:42;;;;;;;5.72;2.33;;;11.20;99.90;;;;;;5107438;28;20039;-67
2022/09/18 08:45:17;;;;;;;9.93;4.93;;;11.20;99.90;;;;;;5094340;28;20047;-67
2022/09/18 08:48:13;;;;;;;1.63;0.90;;;11.30;99.90;;;;;;5097157;28;20071;-67
2022/09/18 08:50:42;;;;;;;5.30;2.33;;;11.30;99.90;;;;;;5094054;28;20047;-67
2022/09/18 08:53:22;;;;;;;2.92;0.88;;;11.20;99.90;;;;;;5086481;28;20043;-68
2022/09/18 08:55:50;;;;;;;7.72;2.08;;;11.30;99.90;;;;;;5101761;28;20050;-67
2022/09/18 08:58:29;;;;;;;5.82;2.38;;;11.30;99.90;;;;;;5106528;28;20044;-67
2022/09/18 09:01:07;;;;;;;1.08;0.77;;;11.30;99.90;;;;;;5105470;28;20047;-67
2022/09/18 09:03:56;;;;;;;17.02;2.30;;;11.30;99.90;;;;;;5106242;28;20044;-67
2022/09/18 09:06:46;;;;;;;13.63;2.90;;;11.30;99.90;;;;;;5076260;28;20087;-67
2022/09/18 09:09:18;;;;;;;15.68;2.50;;;11.30;99.90;;;;;;5097303;28;20051;-67
2022/09/18 09:12:02;;;;;;;3.33;0.60;;;11.30;99.90;;;;;;5093539;28;20400;-67
2022/09/18 09:14:51;;;;;;;8.68;2.00;;;11.30;99.90;;;;;;5093404;28;20433;-67
2022/09/18 09:17:32;;;;;;;6.25;0.93;;;11.40;99.90;;;;;;5096104;28;20074;-68
2022/09/18 09:20:22;;;;;;;2.38;1.50;;;11.30;99.90;;;;;;5102641;28;20050;-68
2022/09/18 09:23:04;;;;;;;0.43;0.43;;;11.20;99.90;;;;;;5109895;28;20085;-69
2022/09/18 09:26:08;;;;;;;8.27;2.33;;;11.30;99.90;;;;;;5101101;28;20043;-68
2022/09/18 09:28:43;;;;;;;0.40;0.40;;;11.30;99.90;;;;;;5079185;28;20094;-67
2022/09/18 09:31:12;;;;;;;8.02;2.83;;;11.30;99.90;;;;;;5106653;28;20032;-68
2022/09/18 09:34:02;;;;;;;3.63;1.20;;;11.40;99.90;;;;;;5089146;28;20044;-68
2022/09/18 09:36:30;;;;;;;6.93;2.40;;;11.30;99.90;;;;;;5089749;28;20054;-68
2022/09/18 09:38:58;;;;;;;;;;;11.30;99.90;;;;;;5105039;28;20588;-68
2022/09/18 09:41:43;;;;;;;5.13;2.20;;;11.30;99.90;;;;;;5105726;28;19919;-67
2022/09/18 09:44:40;;;;;;;10.77;2.72;;;11.30;99.90;;;;;;5105868;28;20512;-67
2022/09/18 09:47:36;;;;;;;7.22;2.53;;;11.40;99.90;;;;;;5104890;28;20917;-68
2022/09/18 09:50:15;;;;;;;7.45;2.10;;;11.40;99.90;;;;;;5103552;28;20077;-67
2022/09/18 09:52:45;;;;;;;7.15;2.15;;;11.40;99.90;;;;;;5089128;28;20055;-67
2022/09/18 09:55:18;;;;;;;10.57;2.50;;;11.40;99.90;;;;;;5106534;28;20103;-68
2022/09/18 09:58:12;;;;;;;7.15;1.92;;;11.40;99.90;;;;;;5091670;28;20059;-68
2022/09/18 10:01:11;;;;;;;1.70;0.52;;;11.40;99.90;;;;;;5088111;28;20149;-68
2022/09/18 10:03:54;;;;;;;11.10;2.63;;;11.40;99.90;;;;;;5074760;28;20059;-68
2022/09/18 10:07:11;;;;;;;15.38;2.92;;;11.30;99.90;;;;;;5098167;28;20047;-68
2022/09/18 10:09:49;;;;;;;8.35;2.65;;;11.40;99.90;;;;;;5085527;28;20063;-68
2022/09/18 10:12:20;;;;;;;9.05;2.67;;;11.50;99.90;;;;;;5109049;28;20075;-67
2022/09/18 10:14:49;;;;;;;6.47;2.15;;;11.30;99.90;;;;;;5101774;28;20040;-67
2022/09/18 10:17:17;;;;;;;12.13;2.83;;;11.40;99.90;;;;;;5091348;28;20055;-67
2022/09/18 10:19:43;;;;;;;11.98;2.97;;;11.30;99.90;;;;;;5096710;28;20047;-67
2022/09/18 10:22:15;;;;;;;5.25;2.00;;;11.40;99.90;;;;;;5104230;28;20075;-66
2022/09/18 10:25:24;;;;;;;5.10;2.08;;;11.40;99.90;;;;;;5107628;28;20051;-67
2022/09/18 10:27:50;;;;;;;6.28;2.22;;;11.50;99.90;;;;;;5085694;28;20043;-67
2022/09/18 10:30:16;;;;;;;9.38;1.83;;;11.40;99.90;;;;;;5096952;28;20056;-67
2022/09/18 10:32:41;;;;;;;11.13;2.63;;;11.50;99.90;;;;;;5098554;28;20813;-67
2022/09/18 10:35:28;;;;;;;14.63;2.67;;;11.50;99.90;;;;;;5100333;27;20040;-67
2022/09/18 10:37:56;;;;;;;8.95;2.25;;;11.50;99.90;;;;;;5107106;28;20189;-66
2022/09/18 10:40:38;;;;;;;4.30;2.03;;;11.60;99.90;;;;;;5110082;28;20044;-66
2022/09/18 10:43:06;;;;;;;8.30;1.80;;;11.60;99.90;;;;;;5109248;28;20592;-66
2022/09/18 10:45:39;;;;;;;14.93;3.38;;;11.60;99.90;;;;;;5100418;28;20747;-66
2022/09/18 10:48:06;;;;;;;22.42;7.35;;;11.70;99.90;;;;;;5104392;28;20526;-66
2022/09/18 10:50:32;;;;;;;8.90;3.22;;;11.70;99.90;;;;;;5093971;28;20040;-66
2022/09/18 10:53:19;;;;;;;0.77;0.77;;;11.70;99.90;;;;;;5103660;28;20556;-66
2022/09/18 10:55:49;;;;;;;11.43;2.83;;;11.70;99.90;;;;;;5089873;28;20095;-67
2022/09/18 10:58:16;;;;;;;2.38;0.80;;;11.80;99.90;;;;;;5105105;28;20519;-66
2022/09/18 11:00:58;;;;;;;0.75;0.75;;;11.70;99.90;;;;;;5098963;28;20036;-66
2022/09/18 11:03:44;;;;;;;5.75;2.50;;;11.80;99.90;;;;;;5096792;28;20082;-66
2022/09/18 11:06:22;;;;;;;18.10;3.05;;;11.90;99.90;;;;;;5094504;28;20047;-66
2022/09/18 11:08:51;;;;;;;8.73;2.03;;;12.00;99.90;;;;;;5094258;28;20044;-67
2022/09/18 11:11:29;;;;;;;12.38;3.03;;;12.00;99.90;;;;;;5095801;28;20055;-67
2022/09/18 11:13:59;;;;;;;9.68;3.55;;;12.20;99.90;;;;;;5105237;28;20089;-67
2022/09/18 11:16:46;;;;;;;11.88;2.75;;;12.10;99.90;;;;;;5106030;28;20048;-66
2022/09/18 11:19:30;;;;;;;8.80;2.42;;;12.30;99.90;;;;;;5101236;28;20516;-66
2022/09/18 11:22:02;;;;;;;4.00;2.20;;;12.20;99.90;;;;;;5101242;28;20700;-67
2022/09/18 11:24:33;;;;;;;7.60;2.00;;;12.40;99.90;;;;;;5108943;28;20050;-67
2022/09/18 11:27:02;;;;;;;1.10;0.80;;;12.40;99.90;;;;;;5108011;28;20059;-66
2022/09/18 11:29:38;;;;;;;10.35;2.33;;;12.40;99.90;;;;;;5104614;28;20147;-66
2022/09/18 11:32:04;;;;;;;0.80;0.80;;;12.40;99.90;;;;;;5108712;28;20054;-66
2022/09/18 11:34:31;;;;;;;16.08;3.22;;;12.50;99.90;;;;;;5093807;28;20039;-66
2022/09/18 11:37:05;;;;;;;16.02;3.17;;;12.40;99.90;;;;;;5107946;28;20051;-66
2022/09/18 11:39:48;;;;;;;9.40;2.92;;;12.50;99.90;;;;;;5108743;28;20082;-66
2022/09/18 11:42:15;;;;;;;4.82;2.55;;;12.60;99.90;;;;;;5108039;28;20451;-67
2022/09/18 11:44:41;;;;;;;2.17;1.42;;;12.60;99.90;;;;;;5104923;28;20126;-66
2022/09/18 11:47:29;;;;;;;3.25;1.77;;;12.50;99.90;;;;;;5099046;28;20130;-67
2022/09/18 11:50:28;;;;;;;0.47;0.47;;;12.70;99.90;;;;;;5105240;28;20048;-67
2022/09/18 11:53:08;;;;;;;5.93;0.82;;;12.70;99.90;;;;;;5087147;28;20180;-67
2022/09/18 11:56:11;;;;;;;4.32;0.90;;;12.80;99.90;;;;;;5095084;28;20040;-68
2022/09/18 11:58:46;;;;;;;7.15;2.78;;;12.80;99.90;;;;;;5066177;28;20103;-68
2022/09/18 12:01:24;;;;;;;13.98;4.13;;;12.90;99.90;;;;;;5099434;28;20052;-67
2022/09/18 12:04:12;;;;;;;14.95;3.38;;;12.90;99.90;;;;;;5076332;28;20050;-67
2022/09/18 12:06:56;;;;;;;11.98;3.92;;;13.00;99.90;;;;;;5108430;28;20055;-67
2022/09/18 12:09:52;;;;;;;17.15;3.08;;;13.10;99.90;;;;;;5094297;28;20062;-67
2022/09/18 12:12:28;;;;;;;6.70;2.13;;;13.10;99.90;;;;;;5103854;28;20031;-67
2022/09/18 12:15:24;;;;;;;14.20;4.55;;;13.10;99.90;;;;;;5099910;28;20079;-67
2022/09/18 12:18:10;;;;;;;10.52;3.80;;;13.20;99.90;;;;;;5096551;28;20055;-67
2022/09/18 12:20:54;;;;;;;5.63;2.67;;;13.30;99.90;;;;;;5097946;28;20103;-67
2022/09/18 12:23:28;;;;;;;6.95;2.63;;;13.30;99.90;;;;;;5097126;28;20056;-67
2022/09/18 12:26:22;;;;;;;11.57;3.40;;;13.50;99.90;;;;;;5103981;28;20036;-67
2022/09/18 12:29:04;;;;;;;17.38;3.13;;;13.40;99.90;;;;;;5100304;28;20530;-67
2022/09/18 12:31:51;;;;;;;7.85;3.20;;;13.40;99.90;;;;;;5101294;28;20117;-67
2022/09/18 12:34:23;;;;;;;13.23;3.33;;;13.40;99.90;;;;;;5107622;28;20049;-67
2022/09/18 12:37:00;;;;;;;15.32;4.03;;;13.50;99.90;;;;;;5094935;28;20862;-67
2022/09/18 12:39:41;;;;;;;18.65;4.30;;;13.60;99.90;;;;;;5106296;28;20051;-68
2022/09/18 12:42:29;;;;;;;12.27;3.55;;;13.70;99.90;;;;;;5103655;28;20097;-67
2022/09/18 12:45:28;;;;;;;12.40;2.72;;;13.60;99.90;;;;;;5099354;28;20044;-67
2022/09/18 12:48:06;;;;;;;25.33;4.68;;;13.70;99.90;;;;;;5097417;28;20764;-67
2022/09/18 12:50:51;;;;;;;13.07;3.40;;;13.80;99.90;;;;;;5108261;28;20146;-67
2022/09/18 12:53:45;;;;;;;15.25;3.50;;;13.70;99.90;;;;;;5112079;27;20059;-67
2022/09/18 12:56:41;;;;;;;10.32;3.53;;;13.80;99.90;;;;;;5101994;28;20053;-67
2022/09/18 12:59:26;;;;;;;11.52;2.85;;;13.80;99.90;;;;;;5102338;28;20752;-67
2022/09/18 13:02:29;;;;;;;23.02;4.43;;;13.80;99.90;;;;;;5104231;28;20401;-67
2022/09/18 13:05:23;;;;;;;29.48;11.85;;;13.80;99.90;;;;;;5110552;28;20044;-67
2022/09/18 13:08:12;;;;;;;13.75;4.32;;;13.90;99.90;;;;;;5102531;28;20115;-67
2022/09/18 13:10:46;;;;;;;9.88;2.78;;;14.00;99.90;;;;;;5109020;28;20535;-67
2022/09/18 13:13:28;;;;;;;10.20;2.88;;;14.00;99.90;;;;;;5103117;28;20048;-68